sensor_id;sensor_type;location;lat;lon;timestamp;P1;durP1;ratioP1;P2;durP2;ratioP2
41629;SDS011;27322;49.488;8.480;2024-01-15T00:02:16;14.52;;;4.35;;
41629;SDS011;27322;49.488;8.480;2024-01-15T00:04:41;19.50;;;5.63;;
41629;SDS011;27322;49.488;8.480;2024-01-15T00:07:07;19.27;;;5.88;;
41629;SDS011;27322;49.488;8.480;2024-01-15T00:09:34;19.85;;;5.78;;
41629;SDS011;27322;49.488;8.480;2024-01-15T00:12:00;19.17;;;5.75;;
41629;SDS011;27322;49.488;8.480;2024-01-15T00:14:26;16.17;;;5.35;;
41629;SDS011;27322;49.488;8.480;2024-01-15T00:16:52;14.52;;;5.22;;
41629;SDS011;27322;49.488;8.480;2024-01-15T00:19:20;18.50;;;5.68;;
41629;SDS011;27322;49.488;8.480;2024-01-15T00:21:46;15.20;;;5.47;;
41629;SDS011;27322;49.488;8.480;2024-01-15T00:24:12;22.17;;;5.72;;
41629;SDS011;27322;49.488;8.480;2024-01-15T00:26:38;14.93;;;5.05;;
41629;SDS011;27322;49.488;8.480;2024-01-15T00:29:03;19.90;;;5.60;;
41629;SDS011;27322;49.488;8.480;2024-01-15T00:31:29;16.70;;;5.10;;
41629;SDS011;27322;49.488;8.480;2024-01-15T00:33:55;16.55;;;5.07;;
41629;SDS011;27322;49.488;8.480;2024-01-15T00:36:21;16.67;;;5.05;;
41629;SDS011;27322;49.488;8.480;2024-01-15T00:38:47;17.17;;;5.85;;
41629;SDS011;27322;49.488;8.480;2024-01-15T00:41:13;14.85;;;5.30;;
41629;SDS011;27322;49.488;8.480;2024-01-15T00:43:39;15.98;;;4.80;;
41629;SDS011;27322;49.488;8.480;2024-01-15T00:46:04;17.00;;;5.47;;
41629;SDS011;27322;49.488;8.480;2024-01-15T00:48:30;18.10;;;5.15;;
41629;SDS011;27322;49.488;8.480;2024-01-15T00:50:56;16.08;;;5.03;;
41629;SDS011;27322;49.488;8.480;2024-01-15T00:53:22;14.18;;;5.05;;
41629;SDS011;27322;49.488;8.480;2024-01-15T00:55:48;17.15;;;5.13;;
41629;SDS011;27322;49.488;8.480;2024-01-15T00:58:14;15.57;;;5.28;;
41629;SDS011;27322;49.488;8.480;2024-01-15T01:00:39;13.90;;;4.85;;
41629;SDS011;27322;49.488;8.480;2024-01-15T01:03:05;17.98;;;5.28;;
41629;SDS011;27322;49.488;8.480;2024-01-15T01:05:31;14.27;;;4.53;;
41629;SDS011;27322;49.488;8.480;2024-01-15T01:07:58;19.30;;;5.95;;
41629;SDS011;27322;49.488;8.480;2024-01-15T01:10:23;16.05;;;5.57;;
41629;SDS011;27322;49.488;8.480;2024-01-15T01:12:49;17.35;;;5.72;;
41629;SDS011;27322;49.488;8.480;2024-01-15T01:15:14;18.13;;;5.28;;
41629;SDS011;27322;49.488;8.480;2024-01-15T01:17:40;17.80;;;5.90;;
41629;SDS011;27322;49.488;8.480;2024-01-15T01:20:06;16.70;;;5.50;;
41629;SDS011;27322;49.488;8.480;2024-01-15T01:22:34;13.35;;;4.65;;
41629;SDS011;27322;49.488;8.480;2024-01-15T01:24:59;16.77;;;5.00;;
41629;SDS011;27322;49.488;8.480;2024-01-15T01:27:25;16.95;;;5.28;;
41629;SDS011;27322;49.488;8.480;2024-01-15T01:29:50;16.08;;;4.78;;
41629;SDS011;27322;49.488;8.480;2024-01-15T01:32:16;19.35;;;5.63;;
41629;SDS011;27322;49.488;8.480;2024-01-15T01:34:42;16.88;;;5.47;;
41629;SDS011;27322;49.488;8.480;2024-01-15T01:37:08;17.27;;;5.53;;
41629;SDS011;27322;49.488;8.480;2024-01-15T01:39:34;17.88;;;5.28;;
41629;SDS011;27322;49.488;8.480;2024-01-15T01:42:00;17.90;;;5.47;;
41629;SDS011;27322;49.488;8.480;2024-01-15T01:44:26;16.15;;;5.28;;
41629;SDS011;27322;49.488;8.480;2024-01-15T01:46:51;12.70;;;4.78;;
41629;SDS011;27322;49.488;8.480;2024-01-15T01:49:18;21.88;;;5.28;;
41629;SDS011;27322;49.488;8.480;2024-01-15T01:51:44;16.75;;;5.50;;
41629;SDS011;27322;49.488;8.480;2024-01-15T01:54:10;16.85;;;5.25;;
41629;SDS011;27322;49.488;8.480;2024-01-15T01:56:38;13.93;;;5.25;;
41629;SDS011;27322;49.488;8.480;2024-01-15T01:59:05;16.17;;;5.35;;
41629;SDS011;27322;49.488;8.480;2024-01-15T02:01:32;17.90;;;5.65;;
41629;SDS011;27322;49.488;8.480;2024-01-15T02:03:58;19.75;;;5.40;;
41629;SDS011;27322;49.488;8.480;2024-01-15T02:06:25;19.10;;;5.78;;
41629;SDS011;27322;49.488;8.480;2024-01-15T02:08:50;15.65;;;4.80;;
41629;SDS011;27322;49.488;8.480;2024-01-15T02:11:16;20.08;;;5.25;;
41629;SDS011;27322;49.488;8.480;2024-01-15T02:13:42;19.50;;;5.38;;
41629;SDS011;27322;49.488;8.480;2024-01-15T02:16:07;17.60;;;5.95;;
41629;SDS011;27322;49.488;8.480;2024-01-15T02:18:42;17.45;;;5.53;;
41629;SDS011;27322;49.488;8.480;2024-01-15T02:21:09;21.55;;;5.95;;
41629;SDS011;27322;49.488;8.480;2024-01-15T02:23:35;15.70;;;5.43;;
41629;SDS011;27322;49.488;8.480;2024-01-15T02:26:01;17.75;;;5.13;;
41629;SDS011;27322;49.488;8.480;2024-01-15T02:28:27;19.25;;;6.13;;
41629;SDS011;27322;49.488;8.480;2024-01-15T02:30:53;19.25;;;5.78;;
41629;SDS011;27322;49.488;8.480;2024-01-15T02:33:18;19.08;;;5.43;;
41629;SDS011;27322;49.488;8.480;2024-01-15T02:35:47;17.92;;;5.47;;
41629;SDS011;27322;49.488;8.480;2024-01-15T02:38:15;18.80;;;5.57;;
41629;SDS011;27322;49.488;8.480;2024-01-15T02:40:41;17.48;;;5.35;;
41629;SDS011;27322;49.488;8.480;2024-01-15T02:43:08;17.10;;;5.75;;
41629;SDS011;27322;49.488;8.480;2024-01-15T02:45:34;17.92;;;6.18;;
41629;SDS011;27322;49.488;8.480;2024-01-15T02:47:59;19.13;;;5.63;;
41629;SDS011;27322;49.488;8.480;2024-01-15T02:50:25;16.55;;;5.30;;
41629;SDS011;27322;49.488;8.480;2024-01-15T02:52:51;17.27;;;5.22;;
41629;SDS011;27322;49.488;8.480;2024-01-15T02:55:16;19.27;;;5.55;;
41629;SDS011;27322;49.488;8.480;2024-01-15T02:57:42;14.80;;;5.22;;
41629;SDS011;27322;49.488;8.480;2024-01-15T03:00:08;22.17;;;5.70;;
41629;SDS011;27322;49.488;8.480;2024-01-15T03:02:36;16.63;;;5.18;;
41629;SDS011;27322;49.488;8.480;2024-01-15T03:05:04;14.70;;;4.85;;
41629;SDS011;27322;49.488;8.480;2024-01-15T03:07:33;13.57;;;4.65;;
41629;SDS011;27322;49.488;8.480;2024-01-15T03:09:58;14.10;;;4.53;;
41629;SDS011;27322;49.488;8.480;2024-01-15T03:12:24;15.65;;;3.97;;
41629;SDS011;27322;49.488;8.480;2024-01-15T03:14:50;17.20;;;5.07;;
41629;SDS011;27322;49.488;8.480;2024-01-15T03:17:15;17.98;;;5.00;;
41629;SDS011;27322;49.488;8.480;2024-01-15T03:19:41;14.60;;;4.70;;
41629;SDS011;27322;49.488;8.480;2024-01-15T03:22:06;15.43;;;5.30;;
41629;SDS011;27322;49.488;8.480;2024-01-15T03:24:33;13.80;;;4.60;;
41629;SDS011;27322;49.488;8.480;2024-01-15T03:26:59;18.15;;;4.80;;
41629;SDS011;27322;49.488;8.480;2024-01-15T03:29:25;16.55;;;4.72;;
41629;SDS011;27322;49.488;8.480;2024-01-15T03:31:51;16.98;;;4.55;;
41629;SDS011;27322;49.488;8.480;2024-01-15T03:34:17;12.75;;;4.20;;
41629;SDS011;27322;49.488;8.480;2024-01-15T03:36:42;14.30;;;4.50;;
41629;SDS011;27322;49.488;8.480;2024-01-15T03:39:08;11.65;;;4.43;;
41629;SDS011;27322;49.488;8.480;2024-01-15T03:41:34;17.50;;;4.78;;
41629;SDS011;27322;49.488;8.480;2024-01-15T03:43:59;14.32;;;4.38;;
41629;SDS011;27322;49.488;8.480;2024-01-15T03:46:25;11.18;;;4.35;;
41629;SDS011;27322;49.488;8.480;2024-01-15T03:48:50;16.52;;;4.55;;
41629;SDS011;27322;49.488;8.480;2024-01-15T03:51:17;13.50;;;4.47;;
41629;SDS011;27322;49.488;8.480;2024-01-15T03:53:43;16.13;;;4.93;;
41629;SDS011;27322;49.488;8.480;2024-01-15T03:56:08;13.75;;;4.35;;
41629;SDS011;27322;49.488;8.480;2024-01-15T03:58:34;13.32;;;4.50;;
41629;SDS011;27322;49.488;8.480;2024-01-15T04:00:59;15.60;;;4.30;;
41629;SDS011;27322;49.488;8.480;2024-01-15T04:03:25;13.98;;;4.43;;
41629;SDS011;27322;49.488;8.480;2024-01-15T04:05:50;17.70;;;4.40;;
41629;SDS011;27322;49.488;8.480;2024-01-15T04:08:16;14.73;;;4.65;;
41629;SDS011;27322;49.488;8.480;2024-01-15T04:10:41;16.15;;;4.45;;
41629;SDS011;27322;49.488;8.480;2024-01-15T04:13:07;14.75;;;5.22;;
41629;SDS011;27322;49.488;8.480;2024-01-15T04:15:33;16.10;;;4.38;;
41629;SDS011;27322;49.488;8.480;2024-01-15T04:17:58;15.40;;;4.68;;
41629;SDS011;27322;49.488;8.480;2024-01-15T04:20:25;15.40;;;4.57;;
41629;SDS011;27322;49.488;8.480;2024-01-15T04:22:51;13.52;;;4.57;;
41629;SDS011;27322;49.488;8.480;2024-01-15T04:25:17;15.95;;;4.68;;
41629;SDS011;27322;49.488;8.480;2024-01-15T04:27:42;15.68;;;4.65;;
41629;SDS011;27322;49.488;8.480;2024-01-15T04:30:08;15.30;;;5.05;;
41629;SDS011;27322;49.488;8.480;2024-01-15T04:32:34;13.55;;;4.15;;
41629;SDS011;27322;49.488;8.480;2024-01-15T04:35:00;14.85;;;4.55;;
41629;SDS011;27322;49.488;8.480;2024-01-15T04:37:25;17.25;;;5.20;;
41629;SDS011;27322;49.488;8.480;2024-01-15T04:39:51;14.30;;;4.43;;
41629;SDS011;27322;49.488;8.480;2024-01-15T04:42:19;15.50;;;4.55;;
41629;SDS011;27322;49.488;8.480;2024-01-15T04:44:48;15.73;;;4.45;;
41629;SDS011;27322;49.488;8.480;2024-01-15T04:47:13;18.25;;;5.15;;
41629;SDS011;27322;49.488;8.480;2024-01-15T04:49:39;14.35;;;4.30;;
41629;SDS011;27322;49.488;8.480;2024-01-15T04:52:05;12.98;;;4.75;;
41629;SDS011;27322;49.488;8.480;2024-01-15T04:54:30;15.38;;;4.60;;
41629;SDS011;27322;49.488;8.480;2024-01-15T04:56:56;12.98;;;4.35;;
41629;SDS011;27322;49.488;8.480;2024-01-15T04:59:21;18.65;;;5.07;;
41629;SDS011;27322;49.488;8.480;2024-01-15T05:01:47;16.20;;;5.40;;
41629;SDS011;27322;49.488;8.480;2024-01-15T05:04:13;17.23;;;4.57;;
41629;SDS011;27322;49.488;8.480;2024-01-15T05:06:39;14.80;;;5.40;;
41629;SDS011;27322;49.488;8.480;2024-01-15T05:09:05;13.00;;;4.72;;
41629;SDS011;27322;49.488;8.480;2024-01-15T05:11:30;17.10;;;4.57;;
41629;SDS011;27322;49.488;8.480;2024-01-15T05:13:56;14.38;;;4.65;;
41629;SDS011;27322;49.488;8.480;2024-01-15T05:16:22;13.55;;;4.30;;
41629;SDS011;27322;49.488;8.480;2024-01-15T05:18:47;12.65;;;5.40;;
41629;SDS011;27322;49.488;8.480;2024-01-15T05:21:13;13.02;;;4.50;;
41629;SDS011;27322;49.488;8.480;2024-01-15T05:23:38;17.63;;;5.25;;
41629;SDS011;27322;49.488;8.480;2024-01-15T05:26:04;16.83;;;5.05;;
41629;SDS011;27322;49.488;8.480;2024-01-15T05:28:29;14.88;;;4.78;;
41629;SDS011;27322;49.488;8.480;2024-01-15T05:30:55;16.23;;;4.95;;
41629;SDS011;27322;49.488;8.480;2024-01-15T05:33:21;19.05;;;5.45;;
41629;SDS011;27322;49.488;8.480;2024-01-15T05:35:48;17.92;;;4.63;;
41629;SDS011;27322;49.488;8.480;2024-01-15T05:38:15;15.00;;;4.60;;
41629;SDS011;27322;49.488;8.480;2024-01-15T05:40:41;14.75;;;4.80;;
41629;SDS011;27322;49.488;8.480;2024-01-15T05:43:06;16.92;;;4.63;;
41629;SDS011;27322;49.488;8.480;2024-01-15T05:45:33;14.15;;;4.47;;
41629;SDS011;27322;49.488;8.480;2024-01-15T05:47:59;18.35;;;5.25;;
41629;SDS011;27322;49.488;8.480;2024-01-15T05:50:25;14.73;;;4.50;;
41629;SDS011;27322;49.488;8.480;2024-01-15T05:52:50;15.55;;;4.35;;
41629;SDS011;27322;49.488;8.480;2024-01-15T05:55:17;15.13;;;4.90;;
41629;SDS011;27322;49.488;8.480;2024-01-15T05:57:43;17.30;;;4.43;;
41629;SDS011;27322;49.488;8.480;2024-01-15T06:00:09;14.73;;;5.00;;
41629;SDS011;27322;49.488;8.480;2024-01-15T06:02:37;15.65;;;4.97;;
41629;SDS011;27322;49.488;8.480;2024-01-15T06:05:03;15.43;;;4.43;;
41629;SDS011;27322;49.488;8.480;2024-01-15T06:07:29;16.20;;;5.25;;
41629;SDS011;27322;49.488;8.480;2024-01-15T06:09:54;17.77;;;5.07;;
41629;SDS011;27322;49.488;8.480;2024-01-15T06:12:22;17.80;;;5.50;;
41629;SDS011;27322;49.488;8.480;2024-01-15T06:14:48;17.90;;;4.63;;
41629;SDS011;27322;49.488;8.480;2024-01-15T06:17:13;15.45;;;5.20;;
41629;SDS011;27322;49.488;8.480;2024-01-15T06:19:39;17.23;;;4.72;;
41629;SDS011;27322;49.488;8.480;2024-01-15T06:22:05;16.17;;;5.10;;
41629;SDS011;27322;49.488;8.480;2024-01-15T06:24:30;14.82;;;4.72;;
41629;SDS011;27322;49.488;8.480;2024-01-15T06:26:56;14.65;;;5.10;;
41629;SDS011;27322;49.488;8.480;2024-01-15T06:29:21;17.88;;;5.50;;
41629;SDS011;27322;49.488;8.480;2024-01-15T06:31:50;14.95;;;4.82;;
41629;SDS011;27322;49.488;8.480;2024-01-15T06:34:15;13.38;;;4.70;;
41629;SDS011;27322;49.488;8.480;2024-01-15T06:36:41;13.70;;;4.70;;
41629;SDS011;27322;49.488;8.480;2024-01-15T06:39:07;12.55;;;4.60;;
41629;SDS011;27322;49.488;8.480;2024-01-15T06:41:32;14.00;;;4.43;;
41629;SDS011;27322;49.488;8.480;2024-01-15T06:43:58;16.15;;;4.82;;
41629;SDS011;27322;49.488;8.480;2024-01-15T06:46:23;11.73;;;4.60;;
41629;SDS011;27322;49.488;8.480;2024-01-15T06:48:49;14.50;;;4.85;;
41629;SDS011;27322;49.488;8.480;2024-01-15T06:51:15;17.05;;;4.65;;
41629;SDS011;27322;49.488;8.480;2024-01-15T06:53:41;13.55;;;4.68;;
41629;SDS011;27322;49.488;8.480;2024-01-15T06:56:06;15.18;;;4.75;;
41629;SDS011;27322;49.488;8.480;2024-01-15T06:58:32;14.13;;;4.40;;
41629;SDS011;27322;49.488;8.480;2024-01-15T07:00:58;13.48;;;4.88;;
41629;SDS011;27322;49.488;8.480;2024-01-15T07:03:24;15.98;;;5.00;;
41629;SDS011;27322;49.488;8.480;2024-01-15T07:05:50;17.48;;;5.38;;
41629;SDS011;27322;49.488;8.480;2024-01-15T07:08:15;15.15;;;4.43;;
41629;SDS011;27322;49.488;8.480;2024-01-15T07:10:41;13.75;;;4.63;;
41629;SDS011;27322;49.488;8.480;2024-01-15T07:13:06;16.10;;;4.85;;
41629;SDS011;27322;49.488;8.480;2024-01-15T07:15:32;12.60;;;4.85;;
41629;SDS011;27322;49.488;8.480;2024-01-15T07:17:58;17.40;;;5.00;;
41629;SDS011;27322;49.488;8.480;2024-01-15T07:20:23;13.45;;;4.88;;
41629;SDS011;27322;49.488;8.480;2024-01-15T07:22:49;17.73;;;5.38;;
41629;SDS011;27322;49.488;8.480;2024-01-15T07:25:15;13.63;;;5.25;;
41629;SDS011;27322;49.488;8.480;2024-01-15T07:27:41;17.10;;;4.95;;
41629;SDS011;27322;49.488;8.480;2024-01-15T07:30:09;17.83;;;5.70;;
41629;SDS011;27322;49.488;8.480;2024-01-15T07:32:36;16.98;;;5.70;;
41629;SDS011;27322;49.488;8.480;2024-01-15T07:35:02;17.00;;;5.45;;
41629;SDS011;27322;49.488;8.480;2024-01-15T07:37:28;14.45;;;4.88;;
41629;SDS011;27322;49.488;8.480;2024-01-15T07:39:54;15.10;;;5.15;;
41629;SDS011;27322;49.488;8.480;2024-01-15T07:42:19;16.58;;;4.82;;
41629;SDS011;27322;49.488;8.480;2024-01-15T07:44:45;14.52;;;5.00;;
41629;SDS011;27322;49.488;8.480;2024-01-15T07:47:10;16.98;;;5.22;;
41629;SDS011;27322;49.488;8.480;2024-01-15T07:49:36;15.48;;;5.25;;
41629;SDS011;27322;49.488;8.480;2024-01-15T07:52:02;18.80;;;5.88;;
41629;SDS011;27322;49.488;8.480;2024-01-15T07:54:29;17.92;;;5.82;;
41629;SDS011;27322;49.488;8.480;2024-01-15T07:56:59;15.95;;;5.88;;
41629;SDS011;27322;49.488;8.480;2024-01-15T07:59:26;17.65;;;5.75;;
41629;SDS011;27322;49.488;8.480;2024-01-15T08:01:52;19.42;;;5.85;;
41629;SDS011;27322;49.488;8.480;2024-01-15T08:04:18;17.98;;;5.35;;
41629;SDS011;27322;49.488;8.480;2024-01-15T08:06:44;15.70;;;5.28;;
41629;SDS011;27322;49.488;8.480;2024-01-15T08:09:10;14.90;;;5.38;;
41629;SDS011;27322;49.488;8.480;2024-01-15T08:11:38;18.48;;;6.22;;
41629;SDS011;27322;49.488;8.480;2024-01-15T08:14:05;17.73;;;5.57;;
41629;SDS011;27322;49.488;8.480;2024-01-15T08:16:31;14.35;;;5.45;;
41629;SDS011;27322;49.488;8.480;2024-01-15T08:18:56;15.02;;;4.97;;
41629;SDS011;27322;49.488;8.480;2024-01-15T08:21:22;16.92;;;5.85;;
41629;SDS011;27322;49.488;8.480;2024-01-15T08:23:47;14.32;;;5.63;;
41629;SDS011;27322;49.488;8.480;2024-01-15T08:26:13;14.80;;;5.47;;
41629;SDS011;27322;49.488;8.480;2024-01-15T08:28:39;13.60;;;5.15;;
41629;SDS011;27322;49.488;8.480;2024-01-15T08:31:04;17.25;;;5.38;;
41629;SDS011;27322;49.488;8.480;2024-01-15T08:33:30;19.30;;;5.68;;
41629;SDS011;27322;49.488;8.480;2024-01-15T08:35:55;16.60;;;5.57;;
41629;SDS011;27322;49.488;8.480;2024-01-15T08:38:21;15.95;;;5.47;;
41629;SDS011;27322;49.488;8.480;2024-01-15T08:40:47;18.00;;;5.95;;
41629;SDS011;27322;49.488;8.480;2024-01-15T08:43:14;14.85;;;5.47;;
41629;SDS011;27322;49.488;8.480;2024-01-15T08:45:39;16.30;;;6.03;;
41629;SDS011;27322;49.488;8.480;2024-01-15T08:48:05;18.65;;;6.28;;
41629;SDS011;27322;49.488;8.480;2024-01-15T08:50:31;18.30;;;5.82;;
41629;SDS011;27322;49.488;8.480;2024-01-15T08:52:58;16.23;;;5.47;;
41629;SDS011;27322;49.488;8.480;2024-01-15T08:55:24;19.25;;;6.10;;
41629;SDS011;27322;49.488;8.480;2024-01-15T08:57:49;17.70;;;5.80;;
41629;SDS011;27322;49.488;8.480;2024-01-15T09:00:15;15.88;;;5.78;;
41629;SDS011;27322;49.488;8.480;2024-01-15T09:02:41;15.80;;;5.20;;
41629;SDS011;27322;49.488;8.480;2024-01-15T09:05:08;15.30;;;5.68;;
41629;SDS011;27322;49.488;8.480;2024-01-15T09:07:33;15.70;;;5.82;;
41629;SDS011;27322;49.488;8.480;2024-01-15T09:09:59;18.88;;;6.20;;
41629;SDS011;27322;49.488;8.480;2024-01-15T09:12:25;15.32;;;5.50;;
41629;SDS011;27322;49.488;8.480;2024-01-15T09:14:51;15.38;;;5.93;;
41629;SDS011;27322;49.488;8.480;2024-01-15T09:17:18;16.45;;;5.85;;
41629;SDS011;27322;49.488;8.480;2024-01-15T09:19:44;14.95;;;5.68;;
41629;SDS011;27322;49.488;8.480;2024-01-15T09:22:09;18.67;;;5.70;;
41629;SDS011;27322;49.488;8.480;2024-01-15T09:24:35;13.27;;;5.50;;
41629;SDS011;27322;49.488;8.480;2024-01-15T09:27:01;16.33;;;5.60;;
41629;SDS011;27322;49.488;8.480;2024-01-15T09:29:27;16.58;;;5.93;;
41629;SDS011;27322;49.488;8.480;2024-01-15T09:31:53;20.58;;;6.18;;
41629;SDS011;27322;49.488;8.480;2024-01-15T09:34:19;18.13;;;5.60;;
41629;SDS011;27322;49.488;8.480;2024-01-15T09:36:44;13.68;;;5.55;;
41629;SDS011;27322;49.488;8.480;2024-01-15T09:39:10;16.13;;;5.90;;
41629;SDS011;27322;49.488;8.480;2024-01-15T09:41:39;14.45;;;5.75;;
41629;SDS011;27322;49.488;8.480;2024-01-15T09:44:05;14.55;;;5.80;;
41629;SDS011;27322;49.488;8.480;2024-01-15T09:46:34;15.48;;;5.75;;
41629;SDS011;27322;49.488;8.480;2024-01-15T09:49:00;13.55;;;5.30;;
41629;SDS011;27322;49.488;8.480;2024-01-15T09:51:31;13.70;;;5.25;;
41629;SDS011;27322;49.488;8.480;2024-01-15T09:53:57;20.35;;;5.88;;
41629;SDS011;27322;49.488;8.480;2024-01-15T09:56:23;13.55;;;5.15;;
41629;SDS011;27322;49.488;8.480;2024-01-15T09:58:49;15.88;;;5.50;;
41629;SDS011;27322;49.488;8.480;2024-01-15T10:01:19;14.57;;;5.40;;
41629;SDS011;27322;49.488;8.480;2024-01-15T10:03:45;15.98;;;5.10;;
41629;SDS011;27322;49.488;8.480;2024-01-15T10:06:11;13.30;;;5.28;;
41629;SDS011;27322;49.488;8.480;2024-01-15T10:08:42;11.40;;;4.60;;
41629;SDS011;27322;49.488;8.480;2024-01-15T10:11:12;11.70;;;4.68;;
41629;SDS011;27322;49.488;8.480;2024-01-15T10:13:38;13.10;;;4.60;;
41629;SDS011;27322;49.488;8.480;2024-01-15T10:16:04;13.02;;;4.95;;
41629;SDS011;27322;49.488;8.480;2024-01-15T10:18:31;16.23;;;5.30;;
41629;SDS011;27322;49.488;8.480;2024-01-15T10:20:57;14.68;;;4.80;;
41629;SDS011;27322;49.488;8.480;2024-01-15T10:23:23;18.42;;;5.20;;
41629;SDS011;27322;49.488;8.480;2024-01-15T10:25:51;14.35;;;5.15;;
41629;SDS011;27322;49.488;8.480;2024-01-15T10:28:18;12.55;;;4.50;;
41629;SDS011;27322;49.488;8.480;2024-01-15T10:30:44;12.50;;;4.82;;
41629;SDS011;27322;49.488;8.480;2024-01-15T10:33:10;14.73;;;4.93;;
41629;SDS011;27322;49.488;8.480;2024-01-15T10:35:37;12.48;;;4.57;;
41629;SDS011;27322;49.488;8.480;2024-01-15T10:38:03;13.30;;;4.93;;
41629;SDS011;27322;49.488;8.480;2024-01-15T10:40:30;15.50;;;5.22;;
41629;SDS011;27322;49.488;8.480;2024-01-15T10:42:56;13.00;;;4.53;;
41629;SDS011;27322;49.488;8.480;2024-01-15T10:45:22;9.70;;;4.03;;
41629;SDS011;27322;49.488;8.480;2024-01-15T10:47:48;11.60;;;4.13;;
41629;SDS011;27322;49.488;8.480;2024-01-15T10:50:14;10.40;;;4.00;;
41629;SDS011;27322;49.488;8.480;2024-01-15T10:52:40;12.18;;;4.10;;
41629;SDS011;27322;49.488;8.480;2024-01-15T10:55:08;9.93;;;3.97;;
41629;SDS011;27322;49.488;8.480;2024-01-15T10:57:34;9.55;;;3.80;;
41629;SDS011;27322;49.488;8.480;2024-01-15T11:00:06;9.02;;;3.88;;
41629;SDS011;27322;49.488;8.480;2024-01-15T11:02:35;10.10;;;3.85;;
41629;SDS011;27322;49.488;8.480;2024-01-15T11:05:02;11.30;;;4.40;;
41629;SDS011;27322;49.488;8.480;2024-01-15T11:07:29;11.43;;;4.45;;
41629;SDS011;27322;49.488;8.480;2024-01-15T11:09:55;11.95;;;4.15;;
41629;SDS011;27322;49.488;8.480;2024-01-15T11:12:23;12.82;;;4.97;;
41629;SDS011;27322;49.488;8.480;2024-01-15T11:14:50;11.88;;;4.18;;
41629;SDS011;27322;49.488;8.480;2024-01-15T11:17:16;9.68;;;4.18;;
41629;SDS011;27322;49.488;8.480;2024-01-15T11:19:43;11.27;;;3.85;;
41629;SDS011;27322;49.488;8.480;2024-01-15T11:22:11;11.00;;;3.40;;
41629;SDS011;27322;49.488;8.480;2024-01-15T11:25:14;10.00;;;3.40;;
41629;SDS011;27322;49.488;8.480;2024-01-15T11:27:40;11.10;;;3.97;;
41629;SDS011;27322;49.488;8.480;2024-01-15T11:30:12;9.57;;;3.40;;
41629;SDS011;27322;49.488;8.480;2024-01-15T11:32:38;8.63;;;3.42;;
41629;SDS011;27322;49.488;8.480;2024-01-15T11:35:06;8.70;;;3.10;;
41629;SDS011;27322;49.488;8.480;2024-01-15T11:40:22;8.77;;;3.35;;
41629;SDS011;27322;49.488;8.480;2024-01-15T11:42:48;10.35;;;3.55;;
41629;SDS011;27322;49.488;8.480;2024-01-15T11:45:15;10.52;;;3.85;;
41629;SDS011;27322;49.488;8.480;2024-01-15T11:47:52;10.95;;;3.60;;
41629;SDS011;27322;49.488;8.480;2024-01-15T11:50:32;10.75;;;4.03;;
41629;SDS011;27322;49.488;8.480;2024-01-15T11:52:59;10.23;;;4.05;;
41629;SDS011;27322;49.488;8.480;2024-01-15T11:55:27;9.38;;;4.28;;
41629;SDS011;27322;49.488;8.480;2024-01-15T11:57:55;14.73;;;4.45;;
41629;SDS011;27322;49.488;8.480;2024-01-15T12:00:23;8.77;;;3.33;;
41629;SDS011;27322;49.488;8.480;2024-01-15T12:02:49;10.23;;;3.70;;
41629;SDS011;27322;49.488;8.480;2024-01-15T12:05:19;10.52;;;4.20;;
41629;SDS011;27322;49.488;8.480;2024-01-15T12:07:49;9.52;;;3.45;;
41629;SDS011;27322;49.488;8.480;2024-01-15T12:10:15;10.57;;;3.45;;
41629;SDS011;27322;49.488;8.480;2024-01-15T12:15:33;8.27;;;3.80;;
41629;SDS011;27322;49.488;8.480;2024-01-15T12:18:00;10.43;;;3.63;;
41629;SDS011;27322;49.488;8.480;2024-01-15T12:20:27;10.70;;;3.95;;
41629;SDS011;27322;49.488;8.480;2024-01-15T12:22:54;9.20;;;3.90;;
41629;SDS011;27322;49.488;8.480;2024-01-15T12:25:20;14.10;;;4.70;;
41629;SDS011;27322;49.488;8.480;2024-01-15T12:27:50;9.57;;;3.92;;
41629;SDS011;27322;49.488;8.480;2024-01-15T12:30:17;9.35;;;3.75;;
41629;SDS011;27322;49.488;8.480;2024-01-15T12:32:43;9.02;;;3.75;;
41629;SDS011;27322;49.488;8.480;2024-01-15T12:35:09;8.32;;;3.67;;
41629;SDS011;27322;49.488;8.480;2024-01-15T12:37:36;9.13;;;3.83;;
41629;SDS011;27322;49.488;8.480;2024-01-15T12:40:02;9.13;;;3.90;;
41629;SDS011;27322;49.488;8.480;2024-01-15T12:42:31;9.68;;;3.88;;
41629;SDS011;27322;49.488;8.480;2024-01-15T12:44:57;11.23;;;3.78;;
41629;SDS011;27322;49.488;8.480;2024-01-15T12:47:23;11.35;;;4.15;;
41629;SDS011;27322;49.488;8.480;2024-01-15T12:49:51;11.98;;;4.07;;
41629;SDS011;27322;49.488;8.480;2024-01-15T12:52:20;8.73;;;3.95;;
41629;SDS011;27322;49.488;8.480;2024-01-15T12:54:47;13.57;;;5.40;;
41629;SDS011;27322;49.488;8.480;2024-01-15T12:57:13;13.65;;;5.07;;
41629;SDS011;27322;49.488;8.480;2024-01-15T12:59:39;11.80;;;4.13;;
41629;SDS011;27322;49.488;8.480;2024-01-15T13:02:05;11.23;;;4.20;;
41629;SDS011;27322;49.488;8.480;2024-01-15T13:04:30;9.93;;;3.70;;
41629;SDS011;27322;49.488;8.480;2024-01-15T13:06:56;9.57;;;3.40;;
41629;SDS011;27322;49.488;8.480;2024-01-15T13:09:22;9.63;;;4.35;;
41629;SDS011;27322;49.488;8.480;2024-01-15T13:11:48;9.52;;;4.05;;
41629;SDS011;27322;49.488;8.480;2024-01-15T13:14:13;9.07;;;4.00;;
41629;SDS011;27322;49.488;8.480;2024-01-15T13:16:40;12.05;;;3.78;;
41629;SDS011;27322;49.488;8.480;2024-01-15T13:19:06;8.65;;;3.65;;
41629;SDS011;27322;49.488;8.480;2024-01-15T13:21:33;10.85;;;3.90;;
41629;SDS011;27322;49.488;8.480;2024-01-15T13:23:59;10.65;;;3.97;;
41629;SDS011;27322;49.488;8.480;2024-01-15T13:26:24;9.63;;;3.53;;
41629;SDS011;27322;49.488;8.480;2024-01-15T13:28:50;10.25;;;3.72;;
41629;SDS011;27322;49.488;8.480;2024-01-15T13:31:15;8.90;;;3.80;;
41629;SDS011;27322;49.488;8.480;2024-01-15T13:33:41;9.20;;;3.85;;
41629;SDS011;27322;49.488;8.480;2024-01-15T13:36:06;9.13;;;3.67;;
41629;SDS011;27322;49.488;8.480;2024-01-15T13:38:35;11.48;;;4.40;;
41629;SDS011;27322;49.488;8.480;2024-01-15T13:41:02;8.18;;;3.70;;
41629;SDS011;27322;49.488;8.480;2024-01-15T13:43:29;10.02;;;3.67;;
41629;SDS011;27322;49.488;8.480;2024-01-15T13:45:56;9.40;;;3.75;;
41629;SDS011;27322;49.488;8.480;2024-01-15T13:48:21;9.88;;;3.92;;
41629;SDS011;27322;49.488;8.480;2024-01-15T13:50:47;9.63;;;3.70;;
41629;SDS011;27322;49.488;8.480;2024-01-15T13:53:13;10.20;;;3.38;;
41629;SDS011;27322;49.488;8.480;2024-01-15T13:55:38;8.27;;;3.65;;
41629;SDS011;27322;49.488;8.480;2024-01-15T13:58:04;10.80;;;4.28;;
41629;SDS011;27322;49.488;8.480;2024-01-15T14:00:31;8.38;;;3.40;;
41629;SDS011;27322;49.488;8.480;2024-01-15T14:02:57;9.65;;;3.58;;
41629;SDS011;27322;49.488;8.480;2024-01-15T14:05:23;10.30;;;3.72;;
41629;SDS011;27322;49.488;8.480;2024-01-15T14:07:48;7.93;;;3.72;;
41629;SDS011;27322;49.488;8.480;2024-01-15T14:10:14;10.02;;;3.60;;
41629;SDS011;27322;49.488;8.480;2024-01-15T14:12:40;8.57;;;3.45;;
41629;SDS011;27322;49.488;8.480;2024-01-15T14:15:06;8.45;;;3.78;;
41629;SDS011;27322;49.488;8.480;2024-01-15T14:17:32;10.68;;;3.50;;
41629;SDS011;27322;49.488;8.480;2024-01-15T14:19:57;11.30;;;3.45;;
41629;SDS011;27322;49.488;8.480;2024-01-15T14:22:23;8.85;;;3.45;;
41629;SDS011;27322;49.488;8.480;2024-01-15T14:24:48;10.98;;;3.80;;
41629;SDS011;27322;49.488;8.480;2024-01-15T14:27:15;9.68;;;3.58;;
41629;SDS011;27322;49.488;8.480;2024-01-15T14:29:41;11.82;;;4.07;;
41629;SDS011;27322;49.488;8.480;2024-01-15T14:32:07;8.05;;;3.38;;
41629;SDS011;27322;49.488;8.480;2024-01-15T14:34:32;7.22;;;3.28;;
41629;SDS011;27322;49.488;8.480;2024-01-15T14:36:58;9.60;;;3.60;;